Evelyn Maersk — OXHV2 — position and weather

sailwx.info

Track history (hours):
 
Tides and Currents Weather Stations Pressure Air Temp Water Temp Dewpoint Dewpoint Depression Visibility Wind Speed Wind Dir Waves Ship Positions

Evelyn Maersk

Last reported at 2018-Feb-15 22:17 UTC. Time now 2018-Feb-22 22:43 UTC.
Position N 36°16' E 014°52'.

Length 398 m; draft 16.1 m.

Type: Ship (hazmat cat A). MMSI: 220496000.

Date/timePositionNaut miles runAvg speedWind from/ knotsBaromVisibWave heightAir tempDewpointWater temp
2018-Feb-15 22:17N 36°16' E 014°52'519.4
2018-Feb-15 22:01N 36°17' E 014°46'1019.6
2018-Feb-15 21:30N 36°20' E 014°34'919.5
2018-Feb-15 21:01N 36°22' E 014°23'1019.6
2018-Feb-15 20:29N 36°26' E 014°11'1019.6
2018-Feb-15 20:00N 36°29' E 013°60'1019.5
2018-Feb-15 19:30N 36°32' E 013°48'91419.8
2018-Feb-13 21:14N 36°00' W 005°05'419.0
2018-Feb-13 21:00N 35°60' W 005°10'918.7
2018-Feb-13 20:30N 35°59' W 005°22'245 5.5
2018-Feb-12 00:21N 37°54' W 009°52'514.5
2018-Feb-12 00:01N 37°59' W 009°53'714.6
2018-Feb-11 23:30N 38°07' W 009°55'914.6
2018-Feb-11 22:51N 38°16' W 009°58'514.5
2018-Feb-11 22:30N 38°21' W 009°59'714.4
2018-Feb-11 22:00N 38°28' W 010°01'714.3
2018-Feb-11 21:30N 38°35' W 010°04'714.3
2018-Feb-11 21:00N 38°42' W 010°06'714.6
2018-Feb-11 20:30N 38°49' W 010°06'714.2
2018-Feb-11 20:01N 38°56' W 010°06'713.9
2018-Feb-11 19:30N 39°03' W 010°06'713.8
2018-Feb-11 18:59N 39°10' W 010°06'714.0
2018-Feb-11 18:30N 39°17' W 010°06'714.0
2018-Feb-11 18:00N 39°24' W 010°06'814.2
2018-Feb-11 17:27N 39°32' W 010°06'  
2018-Feb-09 08:00N 49°55' W 003°06'611.3
2018-Feb-09 07:30N 49°57' W 002°58'1111.1
2018-Feb-09 06:30N 49°59' W 002°41'41 9.1
2018-Feb-09 02:00N 49°58' W 001°38'4 8.9
2018-Feb-09 01:30N 49°57' W 001°31'5 9.1
2018-Feb-09 01:00N 49°54' W 001°25'5 9.6
2018-Feb-09 00:30N 49°52' W 001°18'5 9.7
2018-Feb-09 00:00N 49°51' W 001°12'510.3
2018-Feb-08 23:30N 49°48' W 001°04'510.7
2018-Feb-08 23:00N 49°46' W 000°57'611.2
2018-Feb-08 22:30N 49°44' W 000°49'1211.9
2018-Feb-08 21:30N 49°39' W 000°32'8 5.5
2018-Feb-08 20:00N 49°35' W 000°21'1615.5
2018-Feb-08 19:00N 49°30' E 000°02'5 0.3
2018-Feb-08 01:28N 49°28' E 000°09'0 0.0
2018-Feb-08 00:58N 49°28' E 000°09'0 0.0
2018-Feb-08 00:28N 49°28' E 000°09'0 0.0
2018-Feb-07 23:58N 49°28' E 000°09'0 0.0
2018-Feb-07 23:28N 49°28' E 000°09'0 0.0
2018-Feb-07 22:58N 49°28' E 000°09'0 0.0
2018-Feb-07 22:28N 49°28' E 000°09'0 0.0
2018-Feb-07 21:58N 49°28' E 000°09'0 0.0
2018-Feb-07 21:28N 49°28' E 000°09'14512.1
2018-Feb-07 09:30N 51°22' E 002°28'918.0
2018-Feb-07 09:00N 51°23' E 002°42'1515.0
2018-Feb-07 08:00N 51°24' E 003°06'815.7
2018-Feb-07 07:31N 51°24' E 003°19'1312.9
2018-Feb-07 06:30N 51°26' E 003°39'611.5
2018-Feb-07 06:00N 51°22' E 003°45'611.7
2018-Feb-07 05:31N 51°22' E 003°54'7 6.5
2018-Feb-07 04:31N 51°22' E 004°05'510.1
2018-Feb-07 04:00N 51°23' E 004°13'6 3.8
2018-Feb-07 02:26N 51°17' E 004°15'0 0.0
2018-Feb-07 01:59N 51°17' E 004°15'0 0.0
2018-Feb-07 01:29N 51°17' E 004°15'0 0.0
2018-Feb-07 00:56N 51°17' E 004°15'0 0.0
2018-Feb-07 00:29N 51°17' E 004°15'0 0.0
2018-Feb-06 23:59N 51°17' E 004°15'0 0.0
2018-Feb-06 23:29N 51°17' E 004°15'0 0.0
2018-Feb-06 22:59N 51°17' E 004°15'0 0.0
2018-Feb-06 22:29N 51°17' E 004°15'0 0.0
2018-Feb-06 21:59N 51°17' E 004°15'0 0.0
2018-Feb-06 21:29N 51°17' E 004°15'0 0.0
2018-Feb-06 20:59N 51°17' E 004°15'0 0.0
2018-Feb-06 20:29N 51°17' E 004°15'0 0.0
2018-Feb-06 19:50N 51°17' E 004°15'0 0.0
2018-Feb-06 19:29N 51°17' E 004°15'0 0.0
2018-Feb-06 18:59N 51°17' E 004°15'0 0.0
2018-Feb-06 18:29N 51°17' E 004°15'0 0.0
2018-Feb-06 17:59N 51°17' E 004°15'0 0.0
2018-Feb-06 17:29N 51°17' E 004°15'0 0.0
2018-Feb-06 16:59N 51°17' E 004°15'0 0.0
2018-Feb-06 16:26N 51°17' E 004°15'0 0.0
2018-Feb-06 15:59N 51°17' E 004°15'0 0.0
2018-Feb-06 15:29N 51°17' E 004°15'0 0.0
2018-Feb-06 14:59N 51°17' E 004°15'0 0.0
2018-Feb-06 14:29N 51°17' E 004°15'0 0.0
2018-Feb-06 13:59N 51°17' E 004°15'0 0.0
2018-Feb-06 13:29N 51°17' E 004°15'0 0.0
2018-Feb-06 12:59N 51°17' E 004°15'0 0.0
2018-Feb-06 12:29N 51°17' E 004°15'0 0.0
2018-Feb-06 11:59N 51°17' E 004°15'0 0.0
2018-Feb-06 11:26N 51°17' E 004°15'0 0.0
2018-Feb-06 10:59N 51°17' E 004°15'0 0.0
2018-Feb-06 10:27N 51°17' E 004°15'0 0.0
2018-Feb-06 09:58N 51°17' E 004°15'0 0.0
2018-Feb-06 09:28N 51°17' E 004°15'0 0.0
2018-Feb-06 08:58N 51°17' E 004°15'0 0.0
2018-Feb-06 08:28N 51°17' E 004°15'0 0.0
2018-Feb-06 07:58N 51°17' E 004°15'0 0.0
2018-Feb-06 07:29N 51°17' E 004°15'0 0.0
2018-Feb-06 06:50N 51°17' E 004°15'0 0.0
2018-Feb-06 06:29N 51°17' E 004°15'0 0.0
2018-Feb-06 05:59N 51°17' E 004°15'0 0.0
2018-Feb-06 05:29N 51°17' E 004°15'0 0.0
2018-Feb-06 04:59N 51°17' E 004°15'0 0.0
2018-Feb-06 04:29N 51°17' E 004°15'0 0.0
2018-Feb-06 03:59N 51°17' E 004°15'0 0.0
2018-Feb-06 03:29N 51°17' E 004°15'0 0.0
2018-Feb-06 02:59N 51°17' E 004°15'0 0.0
2018-Feb-06 02:29N 51°17' E 004°15'0 0.0
2018-Feb-06 01:59N 51°17' E 004°15'0 0.0
2018-Feb-06 01:30N 51°17' E 004°15'0 0.0
2018-Feb-06 01:00N 51°17' E 004°15'0 0.0
2018-Feb-06 00:30N 51°17' E 004°15'0 0.0
2018-Feb-05 23:57N 51°17' E 004°15'0 0.0
2018-Feb-05 23:27N 51°17' E 004°15'0 0.3
2018-Feb-05 23:00N 51°17' E 004°15'1 2.1
2018-Feb-05 22:30N 51°18' E 004°16'  
Track history (hours):
 
Tides and Currents Weather Stations Pressure Air Temp Water Temp Dewpoint Dewpoint Depression Visibility Wind Speed Wind Dir Waves Ship Positions

Evelyn Maersk

Last reported at 2018-Feb-15 22:17 UTC. Time now 2018-Feb-22 22:43 UTC.
Position N 36°16' E 014°52'.

Length 398 m; draft 16.1 m.

Type: Ship (hazmat cat A). MMSI: 220496000.

Date/timePositionNaut miles runAvg speedWind from/ knotsBaromVisibWave heightAir tempDewpointWater temp
2018-Feb-15 22:17N 36°16' E 014°52'519.4
2018-Feb-15 22:01N 36°17' E 014°46'1019.6
2018-Feb-15 21:30N 36°20' E 014°34'919.5
2018-Feb-15 21:01N 36°22' E 014°23'1019.6
2018-Feb-15 20:29N 36°26' E 014°11'1019.6
2018-Feb-15 20:00N 36°29' E 013°60'1019.5
2018-Feb-15 19:30N 36°32' E 013°48'91419.8
2018-Feb-13 21:14N 36°00' W 005°05'419.0
2018-Feb-13 21:00N 35°60' W 005°10'918.7
2018-Feb-13 20:30N 35°59' W 005°22'245 5.5
2018-Feb-12 00:21N 37°54' W 009°52'514.5
2018-Feb-12 00:01N 37°59' W 009°53'714.6
2018-Feb-11 23:30N 38°07' W 009°55'914.6
2018-Feb-11 22:51N 38°16' W 009°58'514.5
2018-Feb-11 22:30N 38°21' W 009°59'714.4
2018-Feb-11 22:00N 38°28' W 010°01'714.3
2018-Feb-11 21:30N 38°35' W 010°04'714.3
2018-Feb-11 21:00N 38°42' W 010°06'714.6
2018-Feb-11 20:30N 38°49' W 010°06'714.2
2018-Feb-11 20:01N 38°56' W 010°06'713.9
2018-Feb-11 19:30N 39°03' W 010°06'713.8
2018-Feb-11 18:59N 39°10' W 010°06'714.0
2018-Feb-11 18:30N 39°17' W 010°06'714.0
2018-Feb-11 18:00N 39°24' W 010°06'814.2
2018-Feb-11 17:27N 39°32' W 010°06'  
2018-Feb-09 08:00N 49°55' W 003°06'611.3
2018-Feb-09 07:30N 49°57' W 002°58'1111.1
2018-Feb-09 06:30N 49°59' W 002°41'41 9.1
2018-Feb-09 02:00N 49°58' W 001°38'4 8.9
2018-Feb-09 01:30N 49°57' W 001°31'5 9.1
2018-Feb-09 01:00N 49°54' W 001°25'5 9.6
2018-Feb-09 00:30N 49°52' W 001°18'5 9.7
2018-Feb-09 00:00N 49°51' W 001°12'510.3
2018-Feb-08 23:30N 49°48' W 001°04'510.7
2018-Feb-08 23:00N 49°46' W 000°57'611.2
2018-Feb-08 22:30N 49°44' W 000°49'1211.9
2018-Feb-08 21:30N 49°39' W 000°32'8 5.5
2018-Feb-08 20:00N 49°35' W 000°21'1615.5
2018-Feb-08 19:00N 49°30' E 000°02'5 0.3
2018-Feb-08 01:28N 49°28' E 000°09'0 0.0
2018-Feb-08 00:58N 49°28' E 000°09'0 0.0
2018-Feb-08 00:28N 49°28' E 000°09'0 0.0
2018-Feb-07 23:58N 49°28' E 000°09'0 0.0
2018-Feb-07 23:28N 49°28' E 000°09'0 0.0
2018-Feb-07 22:58N 49°28' E 000°09'0 0.0
2018-Feb-07 22:28N 49°28' E 000°09'0 0.0
2018-Feb-07 21:58N 49°28' E 000°09'0 0.0
2018-Feb-07 21:28N 49°28' E 000°09'14512.1
2018-Feb-07 09:30N 51°22' E 002°28'918.0
2018-Feb-07 09:00N 51°23' E 002°42'1515.0
2018-Feb-07 08:00N 51°24' E 003°06'815.7
2018-Feb-07 07:31N 51°24' E 003°19'1312.9
2018-Feb-07 06:30N 51°26' E 003°39'611.5
2018-Feb-07 06:00N 51°22' E 003°45'611.7
2018-Feb-07 05:31N 51°22' E 003°54'7 6.5
2018-Feb-07 04:31N 51°22' E 004°05'510.1
2018-Feb-07 04:00N 51°23' E 004°13'6 3.8
2018-Feb-07 02:26N 51°17' E 004°15'0 0.0
2018-Feb-07 01:59N 51°17' E 004°15'0 0.0
2018-Feb-07 01:29N 51°17' E 004°15'0 0.0
2018-Feb-07 00:56N 51°17' E 004°15'0 0.0
2018-Feb-07 00:29N 51°17' E 004°15'0 0.0
2018-Feb-06 23:59N 51°17' E 004°15'0 0.0
2018-Feb-06 23:29N 51°17' E 004°15'0 0.0
2018-Feb-06 22:59N 51°17' E 004°15'0 0.0
2018-Feb-06 22:29N 51°17' E 004°15'0 0.0
2018-Feb-06 21:59N 51°17' E 004°15'0 0.0
2018-Feb-06 21:29N 51°17' E 004°15'0 0.0
2018-Feb-06 20:59N 51°17' E 004°15'0 0.0
2018-Feb-06 20:29N 51°17' E 004°15'0 0.0
2018-Feb-06 19:50N 51°17' E 004°15'0 0.0
2018-Feb-06 19:29N 51°17' E 004°15'0 0.0
2018-Feb-06 18:59N 51°17' E 004°15'0 0.0
2018-Feb-06 18:29N 51°17' E 004°15'0 0.0
2018-Feb-06 17:59N 51°17' E 004°15'0 0.0
2018-Feb-06 17:29N 51°17' E 004°15'0 0.0
2018-Feb-06 16:59N 51°17' E 004°15'0 0.0
2018-Feb-06 16:26N 51°17' E 004°15'0 0.0
2018-Feb-06 15:59N 51°17' E 004°15'0 0.0
2018-Feb-06 15:29N 51°17' E 004°15'0 0.0
2018-Feb-06 14:59N 51°17' E 004°15'0 0.0
2018-Feb-06 14:29N 51°17' E 004°15'0 0.0
2018-Feb-06 13:59N 51°17' E 004°15'0 0.0
2018-Feb-06 13:29N 51°17' E 004°15'0 0.0
2018-Feb-06 12:59N 51°17' E 004°15'0 0.0
2018-Feb-06 12:29N 51°17' E 004°15'0 0.0
2018-Feb-06 11:59N 51°17' E 004°15'0 0.0
2018-Feb-06 11:26N 51°17' E 004°15'0 0.0
2018-Feb-06 10:59N 51°17' E 004°15'0 0.0
2018-Feb-06 10:27N 51°17' E 004°15'0 0.0
2018-Feb-06 09:58N 51°17' E 004°15'0 0.0
2018-Feb-06 09:28N 51°17' E 004°15'0 0.0
2018-Feb-06 08:58N 51°17' E 004°15'0 0.0
2018-Feb-06 08:28N 51°17' E 004°15'0 0.0
2018-Feb-06 07:58N 51°17' E 004°15'0 0.0
2018-Feb-06 07:29N 51°17' E 004°15'0 0.0
2018-Feb-06 06:50N 51°17' E 004°15'0 0.0
2018-Feb-06 06:29N 51°17' E 004°15'0 0.0
2018-Feb-06 05:59N 51°17' E 004°15'0 0.0
2018-Feb-06 05:29N 51°17' E 004°15'0 0.0
2018-Feb-06 04:59N 51°17' E 004°15'0 0.0
2018-Feb-06 04:29N 51°17' E 004°15'0 0.0
2018-Feb-06 03:59N 51°17' E 004°15'0 0.0
2018-Feb-06 03:29N 51°17' E 004°15'0 0.0
2018-Feb-06 02:59N 51°17' E 004°15'0 0.0
2018-Feb-06 02:29N 51°17' E 004°15'0 0.0
2018-Feb-06 01:59N 51°17' E 004°15'0 0.0
2018-Feb-06 01:30N 51°17' E 004°15'0 0.0
2018-Feb-06 01:00N 51°17' E 004°15'0 0.0
2018-Feb-06 00:30N 51°17' E 004°15'0 0.0
2018-Feb-05 23:57N 51°17' E 004°15'0 0.0
2018-Feb-05 23:27N 51°17' E 004°15'0 0.3
2018-Feb-05 23:00N 51°17' E 004°15'1 2.1
2018-Feb-05 22:30N 51°18' E 004°16'  

Dump ship's entire track history